Time;durP1;ratioP1;P1;durP2;ratioP2;P2;SDS_P1;SDS_P2;PMS_P1;PMS_P2;Temp;Humidity;BMP_temperature;BMP_pressure;BME280_temperature;BME280_humidity;BME280_pressure;Samples;Min_cycle;Max_cycle;Signal;HPM_P1;HPM_P2
2022/03/16 00:01:59;;;;;;;28.70;15.57;;;4.80;99.90;;;;;;5093810;28;20020;-84
2022/03/16 00:04:24;;;;;;;30.73;15.75;;;5.20;99.90;;;;;;5093694;28;20463;-80
2022/03/16 00:06:50;;;;;;;35.55;16.20;;;5.50;99.90;;;;;;5093496;28;20056;-79
2022/03/16 00:09:16;;;;;;;24.42;15.25;;;4.80;99.90;;;;;;5093632;28;20540;-80
2022/03/16 00:11:42;;;;;;;24.00;14.57;;;4.80;99.90;;;;;;5092766;28;20032;-81
2022/03/16 00:14:07;;;;;;;31.13;15.50;;;4.70;99.90;;;;;;5092532;28;20379;-77
2022/03/16 00:16:33;;;;;;;26.42;14.48;;;5.30;99.90;;;;;;5091990;28;20478;-79
2022/03/16 00:18:59;;;;;;;29.70;16.27;;;4.70;99.90;;;;;;5091838;28;20031;-78
2022/03/16 00:21:24;;;;;;;27.98;15.15;;;5.00;99.90;;;;;;5091503;28;20539;-79
2022/03/16 00:23:50;;;;;;;31.33;14.98;;;4.90;99.90;;;;;;5092868;28;20413;-79
2022/03/16 00:26:16;;;;;;;26.48;14.70;;;5.10;99.90;;;;;;5091770;28;20498;-78
2022/03/16 00:28:41;;;;;;;27.67;16.60;;;4.80;99.90;;;;;;5091540;28;20115;-79
2022/03/16 00:31:07;;;;;;;26.33;15.02;;;4.80;99.90;;;;;;5091231;28;20036;-79
2022/03/16 00:33:33;;;;;;;29.48;16.33;;;4.80;99.90;;;;;;5093155;28;20026;-79
2022/03/16 00:35:59;;;;;;;29.17;17.55;;;4.90;99.90;;;;;;5093041;28;20024;-78
2022/03/16 00:38:24;;;;;;;31.20;18.55;;;4.70;99.90;;;;;;5091491;28;20115;-78
2022/03/16 00:40:50;;;;;;;28.00;18.40;;;5.30;99.90;;;;;;5092891;28;20052;-83
2022/03/16 00:43:16;;;;;;;31.27;16.85;;;4.70;99.90;;;;;;5092754;28;20073;-78
2022/03/16 00:45:42;;;;;;;34.63;17.92;;;4.70;99.90;;;;;;5093035;28;20375;-78
2022/03/16 00:48:08;;;;;;;29.15;17.75;;;5.10;99.90;;;;;;5095284;28;20044;-78
2022/03/16 00:50:34;;;;;;;32.83;19.25;;;4.90;99.90;;;;;;5095627;28;20028;-79
2022/03/16 00:53:00;;;;;;;32.58;17.60;;;5.10;99.90;;;;;;5095551;28;20474;-78
2022/03/16 00:55:26;;;;;;;33.80;19.35;;;5.10;99.90;;;;;;5095358;28;20155;-80
2022/03/16 00:57:52;;;;;;;35.03;19.33;;;4.70;99.90;;;;;;5095329;28;20139;-78
2022/03/16 01:00:18;;;;;;;40.65;20.30;;;4.90;99.90;;;;;;5095161;28;20104;-79
2022/03/16 01:02:43;;;;;;;40.22;21.90;;;4.80;99.90;;;;;;5095370;28;20031;-79
2022/03/16 01:05:09;;;;;;;47.15;21.48;;;4.80;99.90;;;;;;5095206;28;20065;-80
2022/03/16 01:07:35;;;;;;;36.92;19.83;;;5.10;99.90;;;;;;5095366;28;20592;-78
2022/03/16 01:10:01;;;;;;;37.92;19.90;;;4.70;99.90;;;;;;5095350;28;20360;-79
2022/03/16 01:12:27;;;;;;;32.80;20.25;;;4.80;99.90;;;;;;5096135;28;20121;-79
2022/03/16 01:14:52;;;;;;;34.88;18.23;;;4.80;99.90;;;;;;5094737;28;20024;-78
2022/03/16 01:17:18;;;;;;;33.72;18.08;;;4.90;99.90;;;;;;5094665;28;20027;-78
2022/03/16 01:19:44;;;;;;;28.58;17.38;;;4.80;99.90;;;;;;5094533;28;20020;-81
2022/03/16 01:22:09;;;;;;;38.97;21.15;;;4.70;99.90;;;;;;5094548;28;20021;-79
2022/03/16 01:24:35;;;;;;;34.42;18.60;;;4.70;99.90;;;;;;5095905;28;20024;-78
2022/03/16 01:27:01;;;;;;;34.15;17.83;;;4.80;99.90;;;;;;5096056;28;20475;-78
2022/03/16 01:29:27;;;;;;;29.40;17.67;;;4.70;99.90;;;;;;5094866;28;20078;-81
2022/03/16 01:31:56;;;;;;;39.05;19.67;;;4.60;99.90;;;;;;5094801;28;20433;-80
2022/03/16 01:34:22;;;;;;;32.05;18.38;;;4.70;99.90;;;;;;5094720;28;20096;-79
2022/03/16 01:36:48;;;;;;;39.95;18.73;;;4.90;99.90;;;;;;5094607;28;20052;-82
2022/03/16 01:39:15;;;;;;;36.97;20.08;;;4.60;99.90;;;;;;5094496;28;20077;-82
2022/03/16 01:41:42;;;;;;;30.42;18.60;;;5.10;99.90;;;;;;5094945;28;20047;-82
2022/03/16 01:44:09;;;;;;;34.35;18.63;;;5.10;99.90;;;;;;5094480;28;20028;-83
2022/03/16 01:46:34;;;;;;;39.22;19.25;;;4.80;99.90;;;;;;5094429;28;20052;-81
2022/03/16 01:49:00;;;;;;;31.98;17.92;;;4.80;99.90;;;;;;5094095;28;20475;-79
2022/03/16 01:51:27;;;;;;;30.23;18.13;;;4.80;99.90;;;;;;5094325;28;20555;-79
2022/03/16 01:53:52;;;;;;;33.75;18.50;;;4.80;99.90;;;;;;5094369;28;20036;-80
2022/03/16 01:56:18;;;;;;;35.25;19.10;;;4.70;99.90;;;;;;5093961;28;20016;-79
2022/03/16 01:58:44;;;;;;;33.92;17.58;;;4.70;99.90;;;;;;5093813;28;20383;-81
2022/03/16 02:01:10;;;;;;;38.70;21.23;;;4.80;99.90;;;;;;5095485;28;20018;-82
2022/03/16 02:03:36;;;;;;;31.65;19.83;;;5.10;99.90;;;;;;5093938;28;20107;-80
2022/03/16 02:06:03;;;;;;;33.85;19.05;;;4.90;99.90;;;;;;5095442;28;20405;-78
2022/03/16 02:08:40;;;;;;;29.02;17.15;;;4.70;99.90;;;;;;5093952;28;20016;-79
2022/03/16 02:11:06;;;;;;;38.17;17.42;;;4.70;99.90;;;;;;5095126;28;20085;-79
2022/03/16 02:13:36;;;;;;;33.75;16.45;;;4.70;99.90;;;;;;5095082;28;20359;-78
2022/03/16 02:16:03;;;;;;;32.58;17.77;;;4.60;99.90;;;;;;5093787;28;20082;-79
2022/03/16 02:18:29;;;;;;;35.35;18.42;;;4.60;99.90;;;;;;5093768;28;20028;-81
2022/03/16 02:20:56;;;;;;;34.38;18.25;;;5.20;99.90;;;;;;5093938;28;20027;-81
2022/03/16 02:23:22;;;;;;;35.97;19.60;;;4.70;99.90;;;;;;5093936;28;20463;-81
2022/03/16 02:25:50;;;;;;;39.97;19.20;;;4.90;99.90;;;;;;5093465;28;20078;-79
2022/03/16 02:28:17;;;;;;;43.95;21.23;;;4.60;99.90;;;;;;5093365;28;20023;-79
2022/03/16 02:30:42;;;;;;;52.10;23.55;;;5.00;99.90;;;;;;5093649;28;20035;-81
2022/03/16 02:33:09;;;;;;;45.67;20.88;;;4.70;99.90;;;;;;5093430;28;20021;-79
2022/03/16 02:35:34;;;;;;;32.75;17.00;;;5.30;99.90;;;;;;5093490;28;20043;-78
2022/03/16 02:38:00;;;;;;;34.67;18.90;;;4.70;99.90;;;;;;5093310;28;20027;-80
2022/03/16 02:40:26;;;;;;;31.50;17.08;;;5.00;99.90;;;;;;5093153;28;20386;-78
2022/03/16 02:42:52;;;;;;;31.75;19.05;;;5.00;99.90;;;;;;5094629;28;20024;-79
2022/03/16 02:45:18;;;;;;;37.30;17.33;;;5.10;99.90;;;;;;5093052;28;20470;-83
2022/03/16 02:47:44;;;;;;;30.65;17.77;;;5.20;99.90;;;;;;5092941;28;20113;-78
2022/03/16 02:50:10;;;;;;;43.80;17.92;;;4.80;99.90;;;;;;5092923;28;20032;-78
2022/03/16 02:52:37;;;;;;;28.35;17.42;;;5.20;99.90;;;;;;5093036;28;20119;-78
2022/03/16 02:55:04;;;;;;;36.67;19.05;;;5.20;99.90;;;;;;5093000;28;20044;-78
2022/03/16 02:57:30;;;;;;;32.92;17.95;;;4.70;99.90;;;;;;5093218;28;20103;-78
2022/03/16 02:59:56;;;;;;;33.38;18.60;;;5.10;99.90;;;;;;5094438;28;20135;-78
2022/03/16 03:02:21;;;;;;;35.70;18.30;;;5.40;99.90;;;;;;5092723;28;20016;-78
2022/03/16 03:04:47;;;;;;;37.13;18.35;;;4.90;99.90;;;;;;5094184;28;20028;-79
2022/03/16 03:07:13;;;;;;;31.13;17.67;;;5.10;99.90;;;;;;5092935;28;20046;-79
2022/03/16 03:09:38;;;;;;;32.72;19.27;;;4.90;99.90;;;;;;5092075;28;20024;-79
2022/03/16 03:12:05;;;;;;;30.10;17.48;;;5.10;99.90;;;;;;5093988;28;20028;-79
2022/03/16 03:14:31;;;;;;;38.65;19.58;;;4.60;99.90;;;;;;5092806;28;20024;-80
2022/03/16 03:16:56;;;;;;;42.80;20.70;;;4.80;99.90;;;;;;5092479;28;20028;-79
2022/03/16 03:19:22;;;;;;;33.50;19.17;;;5.00;99.90;;;;;;5092704;28;20498;-77
2022/03/16 03:21:49;;;;;;;35.42;19.48;;;4.80;99.90;;;;;;5092493;28;20024;-78
2022/03/16 03:24:14;;;;;;;34.35;18.80;;;4.80;99.90;;;;;;5093628;28;20471;-80
2022/03/16 03:26:40;;;;;;;36.90;19.02;;;4.60;99.90;;;;;;5092775;28;20081;-78
2022/03/16 03:29:06;;;;;;;37.05;20.67;;;4.60;99.90;;;;;;5092685;28;20106;-80
2022/03/16 03:31:32;;;;;;;43.03;20.27;;;4.60;99.90;;;;;;5092669;28;20031;-79
2022/03/16 03:33:57;;;;;;;36.78;20.92;;;4.90;99.90;;;;;;5092555;28;20039;-79
2022/03/16 03:36:24;;;;;;;37.35;21.00;;;4.60;99.90;;;;;;5093621;28;20548;-78
2022/03/16 03:38:49;;;;;;;35.15;20.38;;;5.10;99.90;;;;;;5092260;28;20013;-81
2022/03/16 03:41:15;;;;;;;35.25;19.77;;;4.70;99.90;;;;;;5092159;28;20027;-80
2022/03/16 03:43:41;;;;;;;36.63;21.48;;;4.80;99.90;;;;;;5092445;28;20028;-79
2022/03/16 03:46:06;;;;;;;58.38;29.02;;;5.20;99.90;;;;;;5091912;28;20028;-79
2022/03/16 03:48:32;;;;;;;48.38;27.40;;;4.70;99.90;;;;;;5092421;28;20371;-80
2022/03/16 03:50:58;;;;;;;38.38;20.95;;;4.50;99.90;;;;;;5092534;28;20032;-78
2022/03/16 03:53:24;;;;;;;36.33;19.92;;;4.60;99.90;;;;;;5092223;28;20027;-80
2022/03/16 03:55:50;;;;;;;37.35;21.42;;;4.50;99.90;;;;;;5093557;28;20032;-79
2022/03/16 03:58:15;;;;;;;37.25;20.65;;;4.60;99.90;;;;;;5091828;28;20467;-78
2022/03/16 04:00:41;;;;;;;39.80;22.30;;;4.50;99.90;;;;;;5093024;28;20387;-82
2022/03/16 04:03:06;;;;;;;36.95;21.95;;;4.60;99.90;;;;;;5091845;28;20024;-81
2022/03/16 04:05:32;;;;;;;37.88;21.73;;;4.70;99.90;;;;;;5092009;28;20024;-78
2022/03/16 04:07:58;;;;;;;40.33;21.35;;;4.50;99.90;;;;;;5093275;28;20625;-79
2022/03/16 04:10:24;;;;;;;44.80;22.27;;;4.80;99.90;;;;;;5091832;28;20050;-78
2022/03/16 04:12:50;;;;;;;34.53;22.02;;;4.70;99.90;;;;;;5093508;28;20483;-79
2022/03/16 04:15:18;;;;;;;36.63;22.08;;;4.80;99.90;;;;;;5092963;28;20024;-78
2022/03/16 04:17:44;;;;;;;37.85;22.88;;;4.50;99.90;;;;;;5091676;28;20099;-79
2022/03/16 04:20:09;;;;;;;33.40;21.35;;;4.70;99.90;;;;;;5092478;28;20091;-79
2022/03/16 04:22:36;;;;;;;36.78;23.52;;;4.50;99.90;;;;;;5091770;28;20020;-80
2022/03/16 04:25:03;;;;;;;38.75;21.92;;;4.60;99.90;;;;;;5091538;28;20024;-79
2022/03/16 04:27:29;;;;;;;35.03;20.98;;;4.50;99.90;;;;;;5091962;28;20024;-79
2022/03/16 04:29:55;;;;;;;35.13;20.20;;;4.60;99.90;;;;;;5091640;28;20024;-80
2022/03/16 04:32:20;;;;;;;33.60;20.67;;;4.60;99.90;;;;;;5091757;28;20020;-78
2022/03/16 04:34:46;;;;;;;41.00;21.25;;;4.50;99.90;;;;;;5092953;28;20024;-80
2022/03/16 04:37:12;;;;;;;37.47;21.15;;;4.90;99.90;;;;;;5091675;28;20414;-79
2022/03/16 04:39:37;;;;;;;39.92;21.13;;;4.60;99.90;;;;;;5091708;28;20077;-80
2022/03/16 04:42:04;;;;;;;40.13;21.23;;;4.60;99.90;;;;;;5091418;28;20019;-80
2022/03/16 04:44:29;;;;;;;34.67;21.60;;;4.40;99.90;;;;;;5092829;28;20024;-83
2022/03/16 04:46:55;;;;;;;33.67;20.05;;;5.10;99.90;;;;;;5092687;28;20040;-80
2022/03/16 04:49:21;;;;;;;33.35;20.20;;;4.50;99.90;;;;;;5092230;28;20028;-80
2022/03/16 04:51:46;;;;;;;33.90;21.42;;;4.70;99.90;;;;;;5092673;28;20043;-80
2022/03/16 04:54:14;;;;;;;41.10;23.23;;;5.10;99.90;;;;;;5092737;28;20028;-79
2022/03/16 04:56:40;;;;;;;38.42;23.70;;;4.50;99.90;;;;;;5091222;28;20024;-79
2022/03/16 04:59:06;;;;;;;37.90;20.52;;;4.50;99.90;;;;;;5091618;28;20039;-79
2022/03/16 05:01:32;;;;;;;38.63;22.30;;;4.50;99.90;;;;;;5091579;28;20762;-80
2022/03/16 05:03:58;;;;;;;45.65;21.85;;;4.40;99.90;;;;;;5092762;28;20055;-80
2022/03/16 05:06:23;;;;;;;36.47;22.50;;;4.40;99.90;;;;;;5091320;28;20475;-80
2022/03/16 05:08:50;;;;;;;39.63;24.20;;;4.60;99.90;;;;;;5091610;28;20028;-80
2022/03/16 05:11:16;;;;;;;41.30;24.02;;;4.60;99.90;;;;;;5091232;28;20054;-79
2022/03/16 05:13:43;;;;;;;43.50;25.80;;;4.30;99.90;;;;;;5091457;28;20110;-80
2022/03/16 05:16:09;;;;;;;40.20;23.50;;;4.70;99.90;;;;;;5091734;28;20432;-79
2022/03/16 05:18:35;;;;;;;38.90;24.27;;;4.50;99.90;;;;;;5092864;28;20020;-81
2022/03/16 05:21:03;;;;;;;49.40;26.13;;;4.80;99.90;;;;;;5092986;28;20020;-81
2022/03/16 05:23:29;;;;;;;42.65;25.05;;;4.60;99.90;;;;;;5091316;28;20024;-80
2022/03/16 05:25:55;;;;;;;46.33;26.40;;;4.60;99.90;;;;;;5091173;28;20027;-79
2022/03/16 05:28:21;;;;;;;46.40;26.45;;;4.90;99.90;;;;;;5091394;28;20020;-80
2022/03/16 05:30:47;;;;;;;47.90;26.42;;;4.70;99.90;;;;;;5091401;28;20116;-79
2022/03/16 05:33:13;;;;;;;43.80;25.55;;;4.70;99.90;;;;;;5095329;28;20027;-79
2022/03/16 05:35:40;;;;;;;50.63;27.95;;;4.80;99.90;;;;;;5095119;28;20055;-79
2022/03/16 05:38:08;;;;;;;48.72;27.95;;;4.70;99.90;;;;;;5094961;28;20024;-79
2022/03/16 05:40:34;;;;;;;56.13;30.15;;;4.80;99.90;;;;;;5095210;28;20182;-78
2022/03/16 05:42:59;;;;;;;50.30;28.15;;;4.90;99.90;;;;;;5094846;28;20408;-81
2022/03/16 05:45:25;;;;;;;48.80;26.63;;;4.70;99.90;;;;;;5094701;28;20066;-79
2022/03/16 05:47:51;;;;;;;45.10;26.05;;;5.20;99.90;;;;;;5094855;28;20181;-79
2022/03/16 05:50:16;;;;;;;48.50;26.75;;;5.10;99.90;;;;;;5094844;28;20073;-80
2022/03/16 05:52:43;;;;;;;50.67;28.40;;;5.10;99.90;;;;;;5094673;28;20059;-79
2022/03/16 05:55:09;;;;;;;43.15;26.83;;;5.30;99.90;;;;;;5094753;28;20028;-79
2022/03/16 05:57:39;;;;;;;54.33;28.08;;;5.20;99.90;;;;;;5094522;28;20125;-81
2022/03/16 06:00:06;;;;;;;48.38;26.33;;;5.40;99.90;;;;;;5093851;28;20054;-82
2022/03/16 06:02:32;;;;;;;45.05;28.95;;;5.20;99.90;;;;;;5096060;28;20062;-80
2022/03/16 06:04:58;;;;;;;48.17;26.77;;;5.30;99.90;;;;;;5094922;28;20051;-78
2022/03/16 06:07:23;;;;;;;44.60;25.38;;;5.50;99.90;;;;;;5097881;28;20073;-80
2022/03/16 06:09:49;;;;;;;40.88;24.42;;;5.60;99.90;;;;;;5094505;28;20024;-81
2022/03/16 06:12:15;;;;;;;37.63;25.00;;;5.70;99.90;;;;;;5095496;28;20036;-80
2022/03/16 06:14:40;;;;;;;42.95;25.92;;;5.50;99.90;;;;;;5095480;28;20081;-84
2022/03/16 06:17:06;;;;;;;49.40;26.27;;;5.60;99.90;;;;;;5094812;28;20032;-81
2022/03/16 06:19:32;;;;;;;45.10;26.48;;;5.90;99.90;;;;;;5095598;28;20046;-78
2022/03/16 06:21:57;;;;;;;46.35;25.98;;;5.90;99.90;;;;;;5094586;28;20089;-78
2022/03/16 06:24:23;;;;;;;40.70;25.10;;;5.80;99.90;;;;;;5094408;28;20024;-80
2022/03/16 06:26:49;;;;;;;44.03;24.30;;;6.00;99.90;;;;;;5094105;28;20028;-83
2022/03/16 06:29:15;;;;;;;41.53;25.05;;;6.10;99.90;;;;;;5094236;28;20024;-84
2022/03/16 06:31:43;;;;;;;42.28;24.67;;;5.90;99.90;;;;;;5095717;28;20372;-80
2022/03/16 06:34:09;;;;;;;41.75;24.50;;;6.10;99.90;;;;;;5095162;28;20031;-81
2022/03/16 06:36:35;;;;;;;37.63;24.67;;;6.30;99.90;;;;;;5094977;28;20028;-81
2022/03/16 06:39:00;;;;;;;33.28;21.55;;;6.20;99.90;;;;;;5094210;28;20496;-80
2022/03/16 06:41:26;;;;;;;40.65;25.08;;;6.20;99.90;;;;;;5094192;28;20379;-83
2022/03/16 06:43:52;;;;;;;41.55;24.52;;;6.40;99.90;;;;;;5095081;28;20052;-80
2022/03/16 06:46:17;;;;;;;38.97;24.50;;;6.50;99.90;;;;;;5097724;28;20036;-81
2022/03/16 06:48:43;;;;;;;37.95;25.30;;;6.60;99.90;;;;;;5095164;28;20024;-80
2022/03/16 06:51:08;;;;;;;39.58;23.50;;;6.60;99.90;;;;;;5095094;28;20036;-81
2022/03/16 06:53:34;;;;;;;38.15;22.55;;;6.50;99.90;;;;;;5093984;28;20060;-81
2022/03/16 06:56:03;;;;;;;38.33;23.85;;;6.70;99.90;;;;;;5093724;28;20425;-84
2022/03/16 06:58:29;;;;;;;45.13;25.23;;;6.70;99.90;;;;;;5093854;28;20028;-84
2022/03/16 07:00:55;;;;;;;37.65;23.95;;;6.90;99.90;;;;;;5093827;28;20027;-84
2022/03/16 07:03:22;;;;;;;41.95;23.13;;;7.00;99.90;;;;;;5093475;28;20018;-81
2022/03/16 07:05:47;;;;;;;37.75;22.52;;;7.10;99.90;;;;;;5093559;28;20023;-81
2022/03/16 07:08:14;;;;;;;39.75;23.10;;;7.10;99.90;;;;;;5093666;28;20020;-81
2022/03/16 07:10:42;;;;;;;33.83;21.05;;;7.30;99.90;;;;;;5093171;28;20046;-83
2022/03/16 07:13:09;;;;;;;38.95;23.90;;;7.30;99.90;;;;;;5093368;28;20028;-80
2022/03/16 07:15:35;;;;;;;42.00;24.52;;;7.40;99.90;;;;;;5092918;28;20119;-81
2022/03/16 07:18:04;;;;;;;47.08;28.63;;;7.60;99.90;;;;;;5093162;28;20162;-82
2022/03/16 07:20:31;;;;;;;41.45;23.52;;;7.40;99.90;;;;;;5093465;28;20035;-81
2022/03/16 07:23:06;;;;;;;40.33;23.38;;;7.80;99.90;;;;;;5093256;28;20429;-81
2022/03/16 07:25:32;;;;;;;34.55;21.17;;;7.70;99.90;;;;;;5093249;28;20371;-79
2022/03/16 07:27:58;;;;;;;31.83;19.88;;;7.90;99.90;;;;;;5093637;28;20119;-82
2022/03/16 07:30:24;;;;;;;30.20;19.58;;;8.10;99.90;;;;;;5092846;28;20161;-82
2022/03/16 07:32:50;;;;;;;30.00;17.80;;;8.30;99.90;;;;;;5093892;28;20036;-82
2022/03/16 07:35:16;;;;;;;21.83;13.60;;;8.10;99.90;;;;;;5092706;28;20481;-81
2022/03/16 07:37:42;;;;;;;18.08;11.07;;;8.50;99.90;;;;;;5093991;28;20026;-80
2022/03/16 07:40:09;;;;;;;10.23;6.82;;;9.00;99.90;;;;;;5092228;28;20078;-80
2022/03/16 07:42:36;;;;;;;9.57;6.43;;;9.10;99.90;;;;;;5092895;28;20426;-81
2022/03/16 07:45:03;;;;;;;7.78;5.60;;;9.40;99.90;;;;;;5092493;28;20028;-81
2022/03/16 07:47:28;;;;;;;6.72;4.80;;;9.60;99.90;;;;;;5094352;28;20495;-79
2022/03/16 07:49:56;;;;;;;4.93;3.75;;;9.90;99.90;;;;;;5093981;28;20024;-82
2022/03/16 07:52:25;;;;;;;5.35;3.85;;;10.20;99.90;;;;;;5092697;28;20043;-82
2022/03/16 07:54:51;;;;;;;8.70;3.30;;;10.40;99.90;;;;;;5093749;28;20020;-83
2022/03/16 07:57:17;;;;;;;6.00;3.47;;;10.60;99.90;;;;;;5092866;28;20100;-83
2022/03/16 07:59:44;;;;;;;5.00;3.17;;;;;;;;;;5093534;28;20020;-81
2022/03/16 08:02:16;;;;;;;6.22;2.80;;;;;;;;;;5093509;28;20020;-85
2022/03/16 08:04:43;;;;;;;4.82;3.33;;;;;;;;;;5092827;28;20047;-83
2022/03/16 08:07:12;;;;;;;5.45;2.55;;;11.00;99.90;;;;;;5092785;28;20020;-81
2022/03/16 08:09:37;;;;;;;5.60;3.45;;;11.20;99.90;;;;;;5092437;28;20055;-85
2022/03/16 08:12:03;;;;;;;2.60;2.28;;;11.40;99.90;;;;;;5093497;28;20128;-80
2022/03/16 08:14:29;;;;;;;2.60;2.00;;;11.40;99.90;;;;;;5092173;28;20435;-83
2022/03/16 08:16:55;;;;;;;2.80;2.40;;;11.50;99.90;;;;;;5093318;28;20055;-81
2022/03/16 08:19:21;;;;;;;3.10;2.25;;;11.70;99.90;;;;;;5092228;28;20463;-80
2022/03/16 08:21:47;;;;;;;2.90;2.22;;;11.70;99.90;;;;;;5092191;28;20058;-80
2022/03/16 08:24:14;;;;;;;4.63;2.30;;;11.80;99.90;;;;;;5093245;28;20494;-81
2022/03/16 08:26:40;;;;;;;2.80;2.60;;;11.80;99.90;;;;;;5092662;28;20090;-85
2022/03/16 08:29:05;;;;;;;3.97;2.55;;;11.90;99.90;;;;;;5091923;28;20053;-78
2022/03/16 08:31:31;;;;;;;5.32;2.53;;;11.90;99.40;;;;;;5099011;28;20032;-85
2022/03/16 08:33:57;;;;;;;5.45;2.97;;;12.10;94.50;;;;;;5092862;28;20032;-81
2022/03/16 08:36:22;;;;;;;4.80;3.10;;;12.20;94.10;;;;;;5091339;28;20028;-80
2022/03/16 08:38:48;;;;;;;2.63;2.42;;;12.20;93.30;;;;;;5091082;28;20027;-85
2022/03/16 08:41:14;;;;;;;3.90;2.30;;;12.10;77.10;;;;;;5094029;28;20067;-84
2022/03/16 08:43:40;;;;;;;2.83;2.28;;;12.20;96.20;;;;;;5093097;28;20427;-82
2022/03/16 08:46:06;;;;;;;6.43;4.22;;;12.30;95.10;;;;;;5093703;28;20024;-83
2022/03/16 08:48:31;;;;;;;3.03;2.72;;;12.30;94.70;;;;;;5091963;28;20166;-81
2022/03/16 08:50:57;;;;;;;3.28;2.55;;;12.40;92.00;;;;;;5091625;28;20574;-83
2022/03/16 08:53:24;;;;;;;3.55;2.97;;;12.40;93.30;;;;;;5091819;28;20443;-86
2022/03/16 08:55:50;;;;;;;6.20;3.10;;;12.40;92.70;;;;;;5091822;28;20498;-82
2022/03/16 08:58:16;;;;;;;6.28;2.88;;;12.50;91.70;;;;;;5091431;28;20028;-82
2022/03/16 09:00:42;;;;;;;7.18;3.03;;;12.50;95.20;;;;;;5094466;28;20076;-81
2022/03/16 09:03:11;;;;;;;3.10;2.80;;;12.50;89.50;;;;;;5091368;28;20026;-81
2022/03/16 09:05:37;;;;;;;3.80;2.92;;;12.50;83.60;;;;;;5091212;28;20028;-83
2022/03/16 09:08:03;;;;;;;4.07;3.25;;;12.50;83.60;;;;;;5095025;28;20026;-82
2022/03/16 09:10:29;;;;;;;5.75;2.90;;;12.60;84.00;;;;;;5096656;28;20536;-82
2022/03/16 09:12:55;;;;;;;5.45;2.88;;;12.70;83.90;;;;;;5095392;28;20024;-81
2022/03/16 09:15:22;;;;;;;9.00;2.92;;;12.70;82.30;;;;;;5095611;28;20463;-81
2022/03/16 09:17:47;;;;;;;5.28;3.10;;;12.80;83.30;;;;;;5097093;28;20020;-82
2022/03/16 09:20:13;;;;;;;7.57;3.58;;;12.90;85.20;;;;;;5096423;28;20024;-83
2022/03/16 09:22:39;;;;;;;7.07;4.85;;;12.80;73.30;;;;;;5096774;28;20020;-81
2022/03/16 09:25:07;;;;;;;4.70;3.80;;;12.60;78.10;;;;;;5095617;28;20467;-82
2022/03/16 09:27:35;;;;;;;3.78;3.42;;;12.50;77.90;;;;;;5094911;28;20478;-81
2022/03/16 09:30:01;;;;;;;5.32;3.58;;;12.40;79.10;;;;;;5095098;28;20032;-79
2022/03/16 09:32:27;;;;;;;4.13;3.50;;;12.40;98.60;;;;;;5094707;28;20540;-81
2022/03/16 09:34:53;;;;;;;7.05;5.25;;;12.40;94.90;;;;;;5094925;28;20360;-81
2022/03/16 09:37:19;;;;;;;5.55;4.00;;;12.40;82.00;;;;;;5095160;28;20035;-82
2022/03/16 09:39:46;;;;;;;4.93;4.15;;;12.40;91.30;;;;;;5095760;28;20103;-83
2022/03/16 09:42:12;;;;;;;5.57;4.75;;;12.50;91.00;;;;;;5095546;28;20028;-83
2022/03/16 09:44:41;;;;;;;6.05;4.20;;;;;;;;;;5095506;28;20073;-83
2022/03/16 09:47:09;;;;;;;9.43;5.15;;;;;;;;;;5095779;28;20052;-83
2022/03/16 09:49:38;;;;;;;9.07;5.95;;;;;;;;;;5094766;28;20471;-79
2022/03/16 09:52:07;;;;;;;7.38;4.97;;;;;;;;;;5095790;28;20093;-79
2022/03/16 09:54:33;;;;;;;5.70;4.32;;;12.60;92.40;;;;;;5094822;28;20032;-79
2022/03/16 09:56:59;;;;;;;6.03;4.55;;;12.50;77.20;;;;;;5095872;28;20024;-81
2022/03/16 09:59:24;;;;;;;5.68;4.43;;;12.60;73.00;;;;;;5095934;28;20048;-79
2022/03/16 10:02:09;;;;;;;6.82;4.63;;;12.60;70.70;;;;;;5095955;28;20028;-80
2022/03/16 10:04:36;;;;;;;7.97;5.53;;;12.60;65.30;;;;;;5094315;28;20020;-79
2022/03/16 10:07:04;;;;;;;8.07;5.90;;;12.60;66.60;;;;;;5095858;28;20459;-79
2022/03/16 10:15:15;;;;;;;6.72;5.65;;;12.40;66.20;;;;;;5095529;28;20523;-81
2022/03/16 10:17:43;;;;;;;8.70;6.22;;;12.40;67.00;;;;;;5093919;28;20025;-79
2022/03/16 10:20:09;;;;;;;6.95;5.60;;;12.30;67.10;;;;;;5094443;28;20074;-79
2022/03/16 10:22:38;;;;;;;7.78;6.00;;;12.20;66.60;;;;;;5095155;28;20031;-79
2022/03/16 10:25:07;;;;;;;8.13;6.13;;;12.10;67.30;;;;;;5095044;28;20026;-80
2022/03/16 10:27:37;;;;;;;8.75;6.47;;;12.30;75.30;;;;;;5094049;28;20082;-80
2022/03/16 10:30:05;;;;;;;8.65;6.75;;;12.10;72.90;;;;;;5095230;28;20026;-79
2022/03/16 10:32:31;;;;;;;10.00;6.55;;;12.20;84.70;;;;;;5093457;28;20071;-77
2022/03/16 10:34:57;;;;;;;10.35;6.90;;;12.10;67.30;;;;;;5093362;28;20436;-78
2022/03/16 10:37:24;;;;;;;8.63;6.03;;;12.10;67.40;;;;;;5095705;28;20027;-80
2022/03/16 10:39:52;;;;;;;10.35;6.80;;;12.10;67.20;;;;;;5094127;28;20110;-85
2022/03/16 10:48:01;;;;;;;8.03;6.23;;;12.20;71.50;;;;;;5094194;28;20136;-82
2022/03/16 10:50:27;;;;;;;8.43;6.88;;;12.30;73.00;;;;;;5078411;28;20026;-84
2022/03/16 10:52:53;;;;;;;9.63;7.80;;;12.20;67.40;;;;;;5075482;28;20062;-84
2022/03/16 10:55:20;;;;;;;9.20;6.90;;;12.20;66.60;;;;;;5075270;28;20032;-81
2022/03/16 10:57:50;;;;;;;14.43;7.68;;;12.30;66.60;;;;;;5075638;28;20028;-84
2022/03/16 11:00:17;;;;;;;10.02;7.40;;;12.40;82.80;;;;;;5082031;28;20039;-82
2022/03/16 11:02:45;;;;;;;10.75;8.02;;;12.30;66.10;;;;;;5091238;28;20611;-85
2022/03/16 11:05:11;;;;;;;9.65;7.45;;;12.30;66.40;;;;;;5091444;28;20012;-81
2022/03/16 11:07:38;;;;;;;13.25;7.40;;;12.20;67.20;;;;;;5090211;28;20085;-81
2022/03/16 11:10:06;;;;;;;10.82;7.90;;;12.30;67.10;;;;;;5092288;28;20013;-81
2022/03/16 11:15:18;;;;;;;10.63;8.48;;;12.20;72.10;;;;;;5075786;28;20087;-80
2022/03/16 11:17:44;;;;;;;11.00;8.27;;;12.00;65.90;;;;;;5074825;28;20024;-80
2022/03/16 11:20:11;;;;;;;13.32;8.82;;;11.90;66.00;;;;;;5075450;28;20468;-83
2022/03/16 11:24:15;;;;;;;11.07;8.15;;;11.80;69.00;;;;;;5075404;28;20024;-81
2022/03/16 11:25:46;;;;;;;12.45;8.90;;;11.90;94.40;;;;;;5074544;28;20020;-81
2022/03/16 11:28:16;;;;;;;12.90;8.90;;;11.90;89.90;;;;;;5073633;28;20027;-81
2022/03/16 11:30:43;;;;;;;12.10;8.80;;;11.80;78.00;;;;;;5072982;28;20358;-82
2022/03/16 11:33:16;;;;;;;12.32;9.35;;;11.80;74.80;;;;;;5073839;28;20028;-81
2022/03/16 11:35:44;;;;;;;11.63;9.15;;;11.80;80.50;;;;;;5073343;28;20055;-81
2022/03/16 11:38:15;;;;;;;11.52;9.25;;;11.90;78.30;;;;;;5073432;28;20028;-81
2022/03/16 11:40:47;;;;;;;15.00;9.77;;;11.90;79.10;;;;;;5072980;28;20425;-81
2022/03/16 11:43:21;;;;;;;13.15;9.32;;;11.90;91.70;;;;;;5073355;28;20062;-82
2022/03/16 11:45:54;;;;;;;15.02;10.05;;;11.90;89.50;;;;;;5072898;28;20020;-81
2022/03/16 11:48:32;;;;;;;16.85;10.63;;;11.80;81.80;;;;;;5073085;28;20045;-80
2022/03/16 11:51:20;;;;;;;12.32;9.60;;;11.80;79.70;;;;;;5072777;28;20483;-81
2022/03/16 11:53:54;;;;;;;16.52;10.65;;;11.90;72.70;;;;;;5073090;28;20043;-80
2022/03/16 11:56:41;;;;;;;14.80;10.32;;;11.80;73.50;;;;;;5072501;28;20051;-80
2022/03/16 11:59:16;;;;;;;13.88;10.02;;;12.00;85.50;;;;;;5073019;28;20486;-80
2022/03/16 12:01:48;;;;;;;14.18;10.88;;;11.80;81.30;;;;;;5072878;28;20016;-80
2022/03/16 12:04:31;;;;;;;13.15;10.02;;;11.70;84.50;;;;;;5072657;28;20463;-81
2022/03/16 12:07:17;;;;;;;16.42;10.30;;;11.60;86.00;;;;;;5073964;28;20074;-83
2022/03/16 12:09:56;;;;;;;17.05;10.80;;;11.60;87.60;;;;;;5072341;28;20031;-81
2022/03/16 12:12:51;;;;;;;16.35;11.15;;;11.60;89.60;;;;;;5073570;28;20036;-80
2022/03/16 12:15:41;;;;;;;13.48;9.90;;;11.60;88.50;;;;;;5072678;28;20021;-80
2022/03/16 12:18:07;;;;;;;13.73;10.38;;;11.60;89.80;;;;;;5072439;28;20025;-80
2022/03/16 12:20:44;;;;;;;15.00;11.13;;;11.50;89.00;;;;;;5072258;28;20040;-80
2022/03/16 12:23:15;;;;;;;15.55;10.63;;;11.40;77.70;;;;;;5072493;28;20024;-81
2022/03/16 12:25:51;;;;;;;13.13;9.85;;;11.50;88.20;;;;;;5072191;28;20025;-79
2022/03/16 12:31:13;;;;;;;17.83;11.55;;;11.40;71.10;;;;;;5073376;28;20067;-85
2022/03/16 12:33:49;;;;;;;17.77;11.02;;;11.50;84.00;;;;;;5072408;28;20020;-82
2022/03/16 12:36:21;;;;;;;16.67;11.35;;;11.60;83.90;;;;;;5072539;28;20119;-82
2022/03/16 12:38:52;;;;;;;12.90;9.35;;;11.60;93.00;;;;;;5073349;28;20553;-83
2022/03/16 12:44:07;;;;;;;17.13;12.43;;;11.70;84.70;;;;;;5078032;28;20108;-84
2022/03/16 12:46:36;;;;;;;16.30;10.18;;;11.60;68.70;;;;;;5076204;28;20048;-82
2022/03/16 12:49:13;;;;;;;15.43;11.38;;;11.70;75.20;;;;;;5076582;28;20035;-81
2022/03/16 12:52:01;;;;;;;15.30;10.50;;;11.60;81.40;;;;;;5077678;28;20040;-82
2022/03/16 12:54:32;;;;;;;16.80;11.02;;;11.60;81.70;;;;;;5076409;28;20021;-84
2022/03/16 12:57:16;;;;;;;14.77;10.40;;;11.70;80.70;;;;;;5076369;28;20060;-84
2022/03/16 12:59:52;;;;;;;15.82;10.68;;;11.70;78.50;;;;;;5076327;28;20020;-83
2022/03/16 13:02:23;;;;;;;14.88;10.70;;;11.60;74.70;;;;;;5076426;28;20023;-81